Time;durP1;ratioP1;P1;durP2;ratioP2;P2;SDS_P1;SDS_P2;PMS_P1;PMS_P2;Temp;Humidity;BMP_temperature;BMP_pressure;BME280_temperature;BME280_humidity;BME280_pressure;Samples;Min_cycle;Max_cycle;Signal;HPM_P1;HPM_P2
2023/08/13 00:02:02;;;;;;;8.70;5.85;;;;;;;;;;5116355;28;20122;-84
2023/08/13 00:04:28;;;;;;;8.63;6.07;;;;;;;;;;5099494;28;20492;-84
2023/08/13 00:06:53;;;;;;;10.38;6.03;;;;;;;;;;5116531;28;20064;-84
2023/08/13 00:09:19;;;;;;;11.20;5.95;;;;;;;;;;5116456;28;20363;-82
2023/08/13 00:11:45;;;;;;;9.95;5.82;;;;;;;;;;5116506;28;20029;-84
2023/08/13 00:14:10;;;;;;;11.35;6.30;;;;;;;;;;5116300;28;20023;-83
2023/08/13 00:16:35;;;;;;;10.18;5.78;;;;;;;;;;5117432;28;20024;-83
2023/08/13 00:19:01;;;;;;;11.35;5.72;;;;;;;;;;5117689;28;20034;-84
2023/08/13 00:21:26;;;;;;;21.08;6.70;;;;;;;;;;5082142;28;20039;-83
2023/08/13 00:23:52;;;;;;;11.95;6.53;;;;;;;;;;5117233;28;20023;-84
2023/08/13 00:26:17;;;;;;;9.43;6.20;;;;;;;;;;5115744;28;20028;-83
2023/08/13 00:28:43;;;;;;;11.35;5.85;;;;;;;;;;5115941;28;20050;-83
2023/08/13 00:31:08;;;;;;;17.50;6.57;;;;;;;;;;5149325;27;20039;-83
2023/08/13 00:33:33;;;;;;;9.43;6.25;;;;;;;;;;5116547;28;20076;-84
2023/08/13 00:35:59;;;;;;;11.43;6.38;;;;;;;;;;5116340;28;20092;-84
2023/08/13 00:38:24;;;;;;;11.25;6.63;;;;;;;;;;5117594;28;20070;-83
2023/08/13 00:40:50;;;;;;;11.70;5.88;;;;;;;;;;5098568;28;20498;-83
2023/08/13 00:43:15;;;;;;;9.48;6.20;;;;;;;;;;5116010;28;20027;-83
2023/08/13 00:45:41;;;;;;;9.90;6.32;;;;;;;;;;5117186;28;20068;-83
2023/08/13 00:48:06;;;;;;;8.80;6.20;;;;;;;;;;5116825;28;20116;-83
2023/08/13 00:50:32;;;;;;;11.52;6.60;;;;;;;;;;5116139;28;20050;-84
2023/08/13 00:52:57;;;;;;;11.00;6.80;;;;;;;;;;5115664;28;20132;-84
2023/08/13 00:55:23;;;;;;;9.57;6.05;;;;;;;;;;5115157;28;20038;-84
2023/08/13 00:57:48;;;;;;;9.07;5.75;;;;;;;;;;5098690;28;20024;-84
2023/08/13 01:00:14;;;;;;;12.43;6.57;;;;;;;;;;5081735;28;20038;-84
2023/08/13 01:02:39;;;;;;;9.85;6.30;;;;;;;;;;5116499;28;20024;-84
2023/08/13 01:05:07;;;;;;;9.60;6.20;;;;;;;;;;5098305;28;20019;-84
2023/08/13 01:08:06;;;;;;;12.93;6.78;;;;;;;;;;5098707;28;20623;-84
2023/08/13 01:10:35;;;;;;;12.88;6.20;;;;;;;;;;5104664;28;20116;-84
2023/08/13 01:13:27;;;;;;;11.57;6.93;;;;;;;;;;5098355;28;20023;-85
2023/08/13 01:15:53;;;;;;;11.32;6.30;;;;;;;;;;5115120;28;20025;-84
2023/08/13 01:18:19;;;;;;;12.88;6.95;;;;;;;;;;5098049;28;20058;-84
2023/08/13 01:20:44;;;;;;;10.07;6.63;;;;;;;;;;5097850;28;20035;-84
2023/08/13 01:23:10;;;;;;;11.52;6.82;;;;;;;;;;5116333;28;20032;-84
2023/08/13 01:25:35;;;;;;;12.68;7.00;;;;;;;;;;5098124;28;20081;-84
2023/08/13 01:28:34;;;;;;;11.35;6.60;;;;;;;;;;5098095;28;20052;-84
2023/08/13 01:31:07;;;;;;;13.05;6.75;;;;;;;;;;5115683;27;20125;-84
2023/08/13 01:33:34;;;;;;;12.13;6.90;;;;;;;;;;5081559;28;20076;-84
2023/08/13 01:36:03;;;;;;;17.58;7.10;;;;;;;;;;5097995;28;20028;-84
2023/08/13 01:38:29;;;;;;;15.02;6.82;;;;;;;;;;5097809;28;20140;-84
2023/08/13 01:40:56;;;;;;;11.20;6.82;;;;;;;;;;5097506;28;20109;-84
2023/08/13 01:43:22;;;;;;;12.15;7.22;;;;;;;;;;5080813;28;20028;-84
2023/08/13 01:45:47;;;;;;;13.60;7.50;;;;;;;;;;5097370;28;20031;-84
2023/08/13 01:50:56;;;;;;;16.90;7.75;;;;;;;;;;5115613;28;20054;-84
2023/08/13 01:53:22;;;;;;;12.65;7.10;;;;;;;;;;5115523;27;20024;-84
2023/08/13 01:55:47;;;;;;;15.52;7.78;;;;;;;;;;5114452;28;20073;-84
2023/08/13 01:58:12;;;;;;;14.45;7.78;;;;;;;;;;5115459;28;20020;-84
2023/08/13 02:00:38;;;;;;;15.40;7.65;;;;;;;;;;5115339;28;20027;-83
2023/08/13 02:03:03;;;;;;;18.73;7.07;;;;;;;;;;5114730;28;20070;-84
2023/08/13 02:05:29;;;;;;;12.75;7.80;;;;;;;;;;5115282;28;20118;-84
2023/08/13 02:07:54;;;;;;;15.75;7.70;;;;;;;;;;5115244;28;20043;-84
2023/08/13 02:10:20;;;;;;;15.82;8.50;;;;;;;;;;5115235;28;20513;-84
2023/08/13 02:12:45;;;;;;;17.17;8.10;;;;;;;;;;5096989;28;20088;-84
2023/08/13 02:15:10;;;;;;;13.68;8.02;;;;;;;;;;5114339;28;20092;-84
2023/08/13 02:17:36;;;;;;;19.17;9.43;;;;;;;;;;5115079;28;20112;-84
2023/08/13 02:20:02;;;;;;;14.98;8.77;;;;;;;;;;5114971;28;20116;-84
2023/08/13 02:22:27;;;;;;;22.25;9.10;;;;;;;;;;5096639;28;20015;-84
2023/08/13 02:24:53;;;;;;;15.18;8.90;;;;;;;;;;5114985;28;20028;-84
2023/08/13 02:27:18;;;;;;;16.67;8.98;;;;;;;;;;5113666;28;20121;-84
2023/08/13 02:29:44;;;;;;;14.27;9.23;;;;;;;;;;5114921;28;20114;-84
2023/08/13 02:32:09;;;;;;;20.15;9.35;;;;;;;;;;5114041;28;20032;-84
2023/08/13 02:34:45;;;;;;;16.52;8.90;;;;;;;;;;5115190;28;20143;-84
2023/08/13 02:37:10;;;;;;;17.25;8.75;;;;;;;;;;5114531;28;20463;-83
2023/08/13 02:39:36;;;;;;;18.92;9.82;;;;;;;;;;5114780;28;20118;-83
2023/08/13 02:42:01;;;;;;;19.88;9.18;;;;;;;;;;5113804;28;20027;-83
2023/08/13 02:44:26;;;;;;;14.63;9.07;;;;;;;;;;5114664;28;20386;-83
2023/08/13 02:46:52;;;;;;;19.45;9.73;;;;;;;;;;5096549;28;20429;-83
2023/08/13 02:49:18;;;;;;;13.73;9.20;;;;;;;;;;5114755;28;20027;-83
2023/08/13 02:51:43;;;;;;;19.73;9.10;;;;;;;;;;5113383;28;20361;-84
2023/08/13 02:54:09;;;;;;;15.13;8.90;;;;;;;;;;5112950;28;20345;-84
2023/08/13 02:56:34;;;;;;;16.58;8.73;;;;;;;;;;5113446;28;20475;-84
2023/08/13 02:58:59;;;;;;;16.33;9.20;;;;;;;;;;5114619;28;20030;-84
2023/08/13 03:01:25;;;;;;;14.93;8.88;;;;;;;;;;5114452;28;20120;-83
2023/08/13 03:03:52;;;;;;;17.50;9.07;;;;;;;;;;5114479;28;20433;-83
2023/08/13 03:06:19;;;;;;;18.05;9.57;;;;;;;;;;5114211;28;20464;-83
2023/08/13 03:08:45;;;;;;;23.17;9.10;;;;;;;;;;5113266;28;20034;-83
2023/08/13 03:11:10;;;;;;;15.82;8.98;;;;;;;;;;5096402;28;20027;-83
2023/08/13 03:13:36;;;;;;;17.10;9.20;;;;;;;;;;5096466;28;20076;-83
2023/08/13 03:16:01;;;;;;;20.13;9.65;;;;;;;;;;5114795;28;20071;-84
2023/08/13 03:18:27;;;;;;;17.50;9.23;;;;;;;;;;5113213;28;20047;-83
2023/08/13 03:20:52;;;;;;;15.57;9.55;;;;;;;;;;5112923;28;20081;-83
2023/08/13 03:23:17;;;;;;;17.20;9.65;;;;;;;;;;5113018;28;20093;-83
2023/08/13 03:25:43;;;;;;;20.20;9.32;;;;;;;;;;5096593;28;20364;-83
2023/08/13 03:28:08;;;;;;;21.98;10.05;;;;;;;;;;5096078;28;20036;-83
2023/08/13 03:30:34;;;;;;;22.83;9.88;;;;;;;;;;5079341;28;20027;-83
2023/08/13 03:32:59;;;;;;;16.85;9.48;;;;;;;;;;5096075;28;20027;-83
2023/08/13 03:35:24;;;;;;;19.35;9.55;;;;;;;;;;5112850;28;20058;-84
2023/08/13 03:37:50;;;;;;;20.35;9.70;;;;;;;;;;5113156;28;20024;-83
2023/08/13 03:40:16;;;;;;;23.65;10.00;;;;;;;;;;5095977;28;20035;-84
2023/08/13 03:42:41;;;;;;;16.35;9.98;;;;;;;;;;5096239;28;20464;-83
2023/08/13 03:45:08;;;;;;;21.88;9.77;;;;;;;;;;5112941;28;20119;-84
2023/08/13 03:47:33;;;;;;;21.70;10.48;;;;;;;;;;5096238;28;20193;-84
2023/08/13 03:49:59;;;;;;;19.55;10.13;;;;;;;;;;5095685;28;20504;-84
2023/08/13 03:52:24;;;;;;;26.05;10.82;;;;;;;;;;5114585;28;20051;-84
2023/08/13 03:54:49;;;;;;;22.30;10.82;;;;;;;;;;5114017;28;20502;-83
2023/08/13 03:57:15;;;;;;;24.38;11.23;;;;;;;;;;5112861;28;20088;-83
2023/08/13 03:59:40;;;;;;;26.45;11.30;;;;;;;;;;5079207;28;20023;-84
2023/08/13 04:02:06;;;;;;;21.10;10.60;;;;;;;;;;5096001;28;20047;-84
2023/08/13 04:04:31;;;;;;;23.65;11.68;;;;;;;;;;5095457;28;20024;-83
2023/08/13 04:06:56;;;;;;;24.02;11.57;;;;;;;;;;5116307;28;20077;-84
2023/08/13 04:09:22;;;;;;;24.13;11.95;;;;;;;;;;5116531;28;20027;-84
2023/08/13 04:11:47;;;;;;;22.55;12.00;;;;;;;;;;5082291;28;20445;-84
2023/08/13 04:14:13;;;;;;;27.17;12.02;;;;;;;;;;5099868;28;20028;-84
2023/08/13 04:16:38;;;;;;;25.15;11.15;;;;;;;;;;5116865;28;20023;-84
2023/08/13 04:19:03;;;;;;;21.67;11.23;;;;;;;;;;5098965;28;20020;-84
2023/08/13 04:21:29;;;;;;;23.73;11.52;;;;;;;;;;5115582;28;20038;-84
2023/08/13 04:23:57;;;;;;;21.10;11.00;;;;;;;;;;5082450;28;20024;-84
2023/08/13 04:26:24;;;;;;;28.98;11.48;;;;;;;;;;5099592;28;20493;-84
2023/08/13 04:28:49;;;;;;;24.10;11.90;;;;;;;;;;5099186;28;20067;-84
2023/08/13 04:31:20;;;;;;;25.42;11.60;;;;;;;;;;5081979;28;20027;-84
2023/08/13 04:33:46;;;;;;;25.95;12.25;;;;;;;;;;5115950;28;20364;-84
2023/08/13 04:36:12;;;;;;;27.48;12.38;;;;;;;;;;5117373;28;20112;-84
2023/08/13 04:38:37;;;;;;;34.92;13.15;;;;;;;;;;5116245;28;20143;-84
2023/08/13 04:41:02;;;;;;;30.67;13.20;;;;;;;;;;5116860;28;20027;-84
2023/08/13 04:43:28;;;;;;;32.20;13.77;;;;;;;;;;5116963;28;20030;-83
2023/08/13 04:45:53;;;;;;;32.38;13.80;;;;;;;;;;5098369;28;20020;-83
2023/08/13 04:48:40;;;;;;;29.10;14.48;;;;;;;;;;5117028;28;20027;-83
2023/08/13 04:51:05;;;;;;;43.03;16.38;;;;;;;;;;5116077;28;20038;-84
2023/08/13 04:53:30;;;;;;;36.97;16.67;;;;;;;;;;5098639;28;20023;-83
2023/08/13 04:55:56;;;;;;;39.05;15.82;;;;;;;;;;5098559;28;20467;-84
2023/08/13 04:58:21;;;;;;;35.78;17.00;;;;;;;;;;5116888;28;20437;-84
2023/08/13 05:00:47;;;;;;;44.22;17.70;;;;;;;;;;5098337;28;20027;-84
2023/08/13 05:03:12;;;;;;;45.53;19.10;;;;;;;;;;5098567;28;20092;-83
2023/08/13 05:05:37;;;;;;;55.30;19.75;;;;;;;;;;5115359;28;20065;-83
2023/08/13 05:08:03;;;;;;;52.60;19.77;;;;;;;;;;5098367;28;20448;-84
2023/08/13 05:10:28;;;;;;;42.13;19.35;;;;;;;;;;5098139;28;20036;-83
2023/08/13 05:12:54;;;;;;;44.75;17.27;;;;;;;;;;5116329;28;20453;-83
2023/08/13 05:15:19;;;;;;;37.17;17.27;;;;;;;;;;5114832;28;20023;-84
2023/08/13 05:17:45;;;;;;;36.50;16.38;;;;;;;;;;5115129;28;20057;-84
2023/08/13 05:20:10;;;;;;;34.75;16.30;;;;;;;;;;5114899;28;20376;-84
2023/08/13 05:22:36;;;;;;;37.25;15.52;;;;;;;;;;5098001;28;20023;-84
2023/08/13 05:25:02;;;;;;;33.85;14.85;;;;;;;;;;5098389;28;20023;-84
2023/08/13 05:27:27;;;;;;;35.08;15.60;;;;;;;;;;5114732;28;20132;-83
2023/08/13 05:29:53;;;;;;;34.00;15.02;;;;;;;;;;5097643;28;20457;-83
2023/08/13 05:32:19;;;;;;;27.20;13.95;;;;;;;;;;5115000;28;20126;-85
2023/08/13 05:34:44;;;;;;;32.17;15.50;;;;;;;;;;5116511;28;20038;-83
2023/08/13 05:37:10;;;;;;;34.22;15.75;;;;;;;;;;5081137;28;20432;-83
2023/08/13 05:39:35;;;;;;;39.47;16.30;;;;;;;;;;5097753;28;20027;-84
2023/08/13 05:42:01;;;;;;;40.05;15.65;;;;;;;;;;5097702;28;20020;-84
2023/08/13 05:44:26;;;;;;;41.83;16.08;;;;;;;;;;5114441;28;20027;-84
2023/08/13 05:46:51;;;;;;;36.33;15.57;;;;;;;;;;5114353;28;20024;-84
2023/08/13 05:49:17;;;;;;;39.70;16.25;;;;;;;;;;5097451;28;20711;-84
2023/08/13 05:51:42;;;;;;;33.42;15.65;;;;;;;;;;5080600;28;20419;-83
2023/08/13 05:54:08;;;;;;;32.22;14.85;;;;;;;;;;5114372;28;20035;-84
2023/08/13 05:56:35;;;;;;;38.97;15.82;;;;;;;;;;5114313;28;20027;-85
2023/08/13 05:59:01;;;;;;;41.13;16.30;;;;;;;;;;5114217;28;20071;-85
2023/08/13 06:01:28;;;;;;;37.85;15.55;;;;;;;;;;5114429;28;20031;-84
2023/08/13 06:03:53;;;;;;;36.13;15.77;;;;;;;;;;5114204;28;20087;-84
2023/08/13 06:06:20;;;;;;;39.65;15.18;;;;;;;;;;5114101;28;20035;-84
2023/08/13 06:08:45;;;;;;;34.50;15.73;;;;;;;;;;5115445;28;20030;-84
2023/08/13 06:11:12;;;;;;;32.03;15.70;;;;;;;;;;5097343;28;20028;-84
2023/08/13 06:13:38;;;;;;;37.25;17.20;;;;;;;;;;5097249;28;20035;-85
2023/08/13 06:16:06;;;;;;;33.35;15.88;;;;;;;;;;5080265;28;20118;-82
2023/08/13 06:18:32;;;;;;;31.35;15.93;;;;;;;;;;5097189;28;20417;-82
2023/08/13 06:20:57;;;;;;;35.03;16.60;;;;;;;;;;5097273;28;20352;-82
2023/08/13 06:23:23;;;;;;;37.97;16.63;;;;;;;;;;5080161;28;20035;-82
2023/08/13 06:25:48;;;;;;;37.60;16.58;;;;;;;;;;5096786;28;20023;-83
2023/08/13 06:28:13;;;;;;;37.75;16.30;;;;;;;;;;5078910;28;20105;-82
2023/08/13 06:30:39;;;;;;;38.58;17.48;;;;;;;;;;5113616;28;20019;-82
2023/08/13 06:33:04;;;;;;;38.42;18.10;;;;;;;;;;5096444;28;20027;-82
2023/08/13 06:35:30;;;;;;;36.05;18.13;;;;;;;;;;5113505;28;20028;-82
2023/08/13 06:37:55;;;;;;;41.10;18.67;;;;;;;;;;5096834;28;20024;-83
2023/08/13 06:40:20;;;;;;;33.53;18.02;;;;;;;;;;5114816;28;20059;-82
2023/08/13 06:42:46;;;;;;;37.90;18.15;;;;;;;;;;5113489;28;20524;-83
2023/08/13 06:45:12;;;;;;;37.30;18.38;;;;;;;;;;5079492;28;20472;-82
2023/08/13 06:47:38;;;;;;;40.10;18.50;;;;;;;;;;5096713;28;20084;-83
2023/08/13 06:50:04;;;;;;;40.55;18.27;;;;;;;;;;5113674;28;20027;-83
2023/08/13 06:52:30;;;;;;;42.97;19.35;;;;;;;;;;5113299;28;20516;-82
2023/08/13 06:54:56;;;;;;;38.28;18.00;;;;;;;;;;5114888;28;20360;-82
2023/08/13 06:57:22;;;;;;;38.58;18.33;;;;;;;;;;5114303;28;20023;-83
2023/08/13 06:59:48;;;;;;;41.60;19.33;;;;;;;;;;5113384;28;20031;-82
2023/08/13 07:02:13;;;;;;;37.72;17.48;;;;;;;;;;5096390;28;20023;-83
2023/08/13 07:04:38;;;;;;;39.72;19.20;;;;;;;;;;5113501;28;20027;-83
2023/08/13 07:07:04;;;;;;;34.88;18.83;;;;;;;;;;5113208;28;20353;-83
2023/08/13 07:09:29;;;;;;;36.05;18.77;;;;;;;;;;5113243;28;20020;-83
2023/08/13 07:11:55;;;;;;;30.80;16.17;;;;;;;;;;5112918;28;20028;-82
2023/08/13 07:14:20;;;;;;;28.30;15.93;;;;;;;;;;5113171;28;20389;-83
2023/08/13 07:16:46;;;;;;;26.70;15.63;;;;;;;;;;5079681;28;20045;-82
2023/08/13 07:19:12;;;;;;;28.40;14.32;;;;;;;;;;5113450;28;20030;-82
2023/08/13 07:21:37;;;;;;;30.52;14.70;;;;;;;;;;5114097;28;20127;-82
2023/08/13 07:24:04;;;;;;;30.88;14.55;;;;;;;;;;5113417;28;20049;-84
2023/08/13 07:26:32;;;;;;;28.23;13.85;;;;;;;;;;5112931;28;20032;-85
2023/08/13 07:28:58;;;;;;;22.33;13.27;;;;;;;;;;5112927;28;20361;-84
2023/08/13 07:31:24;;;;;;;22.85;13.52;;;;;;;;;;5079133;28;20040;-85
2023/08/13 07:33:50;;;;;;;24.45;14.30;;;;;;;;;;5112956;28;20039;-85
2023/08/13 07:36:15;;;;;;;24.92;14.45;;;;;;;;;;5114084;28;20028;-84
2023/08/13 07:38:40;;;;;;;23.60;13.45;;;;;;;;;;5113467;28;20166;-85
2023/08/13 07:41:06;;;;;;;24.60;13.65;;;;;;;;;;5116547;28;20028;-82
2023/08/13 07:43:31;;;;;;;24.27;12.48;;;;;;;;;;5116752;28;20027;-83
2023/08/13 07:45:58;;;;;;;19.33;12.43;;;;;;;;;;5099775;28;20126;-82
2023/08/13 07:48:23;;;;;;;22.15;12.32;;;;;;;;;;5099831;28;20027;-83
2023/08/13 07:50:50;;;;;;;21.45;12.77;;;;;;;;;;5116719;28;20049;-82
2023/08/13 07:53:15;;;;;;;23.00;13.35;;;;;;;;;;5100142;28;20039;-82
2023/08/13 07:55:41;;;;;;;18.38;12.32;;;;;;;;;;5116136;28;20031;-83
2023/08/13 07:58:06;;;;;;;21.95;12.18;;;;;;;;;;5099474;28;20027;-82
2023/08/13 08:00:31;;;;;;;19.05;11.50;;;;;;;;;;5116562;28;20035;-82
2023/08/13 08:02:57;;;;;;;21.42;11.20;;;;;;;;;;5116025;28;20104;-82
2023/08/13 08:05:23;;;;;;;21.45;12.55;;;;;;;;;;5116584;28;20467;-83
2023/08/13 08:07:48;;;;;;;18.50;11.95;;;;;;;;;;5116318;28;20032;-83
2023/08/13 08:10:14;;;;;;;25.23;13.48;;;;;;;;;;5099040;28;20114;-83
2023/08/13 08:12:40;;;;;;;23.25;12.35;;;;;;;;;;5116336;28;20031;-83
2023/08/13 08:15:06;;;;;;;20.52;11.75;;;;;;;;;;5099198;28;20024;-83
2023/08/13 08:17:31;;;;;;;25.95;11.73;;;;;;;;;;5116243;28;20028;-82
2023/08/13 08:19:59;;;;;;;18.92;11.50;;;;;;;;;;5099395;28;20031;-82
2023/08/13 08:22:25;;;;;;;20.02;12.27;;;;;;;;;;5116213;28;20031;-83
2023/08/13 08:24:50;;;;;;;23.48;11.88;;;;;;;;;;5117107;28;20019;-82
2023/08/13 08:27:16;;;;;;;17.77;11.68;;;;;;;;;;5116055;28;20026;-82
2023/08/13 08:29:41;;;;;;;22.33;11.23;;;;;;;;;;5082331;28;20448;-82
2023/08/13 08:32:07;;;;;;;19.30;11.02;;;;;;;;;;5150477;27;20029;-83
2023/08/13 08:34:33;;;;;;;20.88;11.68;;;;;;;;;;5115812;28;20436;-82
2023/08/13 08:36:58;;;;;;;18.30;12.02;;;;;;;;;;5099138;28;20035;-83
2023/08/13 08:39:24;;;;;;;19.38;12.35;;;;;;;;;;5116739;28;20034;-83
2023/08/13 08:41:49;;;;;;;18.08;11.95;;;;;;;;;;5115932;28;20051;-82
2023/08/13 08:44:22;;;;;;;22.30;12.60;;;;;;;;;;5098709;28;20019;-83
2023/08/13 08:46:48;;;;;;;20.10;12.38;;;;;;;;;;5098729;28;20020;-83
2023/08/13 08:49:14;;;;;;;18.90;11.82;;;;;;;;;;5098781;28;20414;-82
2023/08/13 08:51:39;;;;;;;20.55;11.98;;;;;;;;;;5114669;28;20038;-82
2023/08/13 08:54:07;;;;;;;16.27;11.52;;;;;;;;;;5098085;28;20047;-83
2023/08/13 08:56:32;;;;;;;23.67;11.53;;;;;;;;;;5116674;28;20034;-82
2023/08/13 08:58:58;;;;;;;17.77;11.75;;;;;;;;;;5132735;27;20114;-83
2023/08/13 09:01:23;;;;;;;23.65;11.50;;;;;;;;;;5098171;28;20444;-82
2023/08/13 09:03:49;;;;;;;16.63;12.00;;;;;;;;;;5098638;28;20047;-83
2023/08/13 09:06:14;;;;;;;18.25;11.75;;;;;;;;;;5098088;28;20030;-83
2023/08/13 09:08:39;;;;;;;18.75;10.98;;;;;;;;;;5097983;28;20016;-83
2023/08/13 09:11:05;;;;;;;16.42;11.15;;;;;;;;;;5081086;28;20360;-82
2023/08/13 09:13:31;;;;;;;21.98;11.43;;;;;;;;;;5098022;28;20118;-83
2023/08/13 09:15:56;;;;;;;22.20;10.68;;;;;;;;;;5081147;28;20483;-83
2023/08/13 09:18:22;;;;;;;19.80;11.27;;;;;;;;;;5114906;28;20019;-82
2023/08/13 09:20:48;;;;;;;15.57;10.27;;;;;;;;;;5114973;28;20051;-83
2023/08/13 09:23:22;;;;;;;21.88;10.93;;;;;;;;;;5097883;28;20456;-83
2023/08/13 09:25:57;;;;;;;18.05;10.82;;;;;;;;;;5114869;28;20030;-83
2023/08/13 09:28:22;;;;;;;16.50;10.35;;;;;;;;;;5114575;28;20042;-83
2023/08/13 09:30:48;;;;;;;15.80;10.45;;;;;;;;;;5116054;28;20027;-82
2023/08/13 09:33:17;;;;;;;18.13;11.13;;;;;;;;;;5097815;28;20024;-82
2023/08/13 09:35:43;;;;;;;16.98;10.75;;;;;;;;;;5114679;28;20035;-83
2023/08/13 09:38:08;;;;;;;17.60;11.45;;;;;;;;;;5097701;28;20020;-83
2023/08/13 09:40:34;;;;;;;18.30;10.65;;;;;;;;;;5097561;28;20028;-83
2023/08/13 09:43:00;;;;;;;17.13;11.88;;;;;;;;;;5114613;28;20020;-83
2023/08/13 09:45:26;;;;;;;16.50;10.88;;;;;;;;;;5081231;28;20334;-82
2023/08/13 09:47:52;;;;;;;15.85;10.57;;;;;;;;;;5114516;28;20049;-83
2023/08/13 09:50:17;;;;;;;16.88;10.80;;;;;;;;;;5097215;28;20066;-83
2023/08/13 09:52:44;;;;;;;18.52;11.07;;;;;;;;;;5116317;28;20110;-83
2023/08/13 09:55:13;;;;;;;18.33;12.05;;;;;;;;;;5114928;28;20027;-82
2023/08/13 09:57:39;;;;;;;18.33;11.48;;;;;;;;;;5115378;28;20094;-83
2023/08/13 10:00:09;;;;;;;19.60;11.25;;;;;;;;;;5120135;28;20095;-82
2023/08/13 10:02:35;;;;;;;17.33;10.55;;;;;;;;;;5117689;28;20054;-83
2023/08/13 10:05:00;;;;;;;20.80;11.60;;;;;;;;;;5118425;28;20038;-83
2023/08/13 10:07:26;;;;;;;21.45;11.02;;;;;;;;;;5118257;28;20024;-82
2023/08/13 10:09:51;;;;;;;24.67;11.45;;;;;;;;;;5130786;28;20038;-83
2023/08/13 10:12:16;;;;;;;16.75;11.88;;;;;;;;;;5114738;28;20022;-83
2023/08/13 10:14:42;;;;;;;17.55;11.70;;;;;;;;;;5100799;28;20033;-82
2023/08/13 10:17:07;;;;;;;17.42;11.52;;;;;;;;;;5127585;28;20024;-83
2023/08/13 10:19:39;;;;;;;15.32;11.00;;;;;;;;;;5123776;28;20110;-83
2023/08/13 10:22:07;;;;;;;18.40;11.38;;;;;;;;;;5097508;28;20020;-83
2023/08/13 10:24:32;;;;;;;18.63;11.32;;;;;;;;;;5097109;28;20016;-83
2023/08/13 10:26:58;;;;;;;18.15;10.63;;;;;;;;;;5096546;28;20075;-82
2023/08/13 10:29:26;;;;;;;18.83;10.93;;;;;;;;;;5096564;28;20039;-83
2023/08/13 10:32:00;;;;;;;20.60;11.20;;;;;;;;;;5097539;28;20052;-82
2023/08/13 10:34:47;;;;;;;18.35;10.10;;;;;;;;;;5096478;28;20063;-82
2023/08/13 10:37:17;;;;;;;19.33;9.57;;;;;;;;;;5098169;28;20371;-82
2023/08/13 10:39:43;;;;;;;16.83;10.07;;;;;;;;;;5113745;28;20371;-82
2023/08/13 10:42:27;;;;;;;22.90;10.52;;;;;;;;;;5096679;28;20034;-82
2023/08/13 10:44:53;;;;;;;19.65;10.00;;;;;;;;;;5113639;28;20131;-82
2023/08/13 10:47:20;;;;;;;25.58;10.68;;;;;;;;;;5096550;28;20035;-82
2023/08/13 10:49:46;;;;;;;19.45;10.45;;;;;;;;;;5114289;28;20024;-82
2023/08/13 10:52:13;;;;;;;14.55;10.18;;;;;;;;;;5096561;28;20032;-82
2023/08/13 10:54:39;;;;;;;17.10;10.35;;;;;;;;;;5096395;28;20023;-82
2023/08/13 10:57:04;;;;;;;17.05;10.82;;;;;;;;;;5096619;28;20031;-82
2023/08/13 10:59:31;;;;;;;17.30;10.65;;;;;;;;;;5096272;28;20038;-82
2023/08/13 11:02:15;;;;;;;26.98;11.52;;;;;;;;;;5113408;28;20031;-83
2023/08/13 11:04:42;;;;;;;22.02;11.57;;;;;;;;;;5096208;28;20062;-82
2023/08/13 11:07:09;;;;;;;18.10;11.32;;;;;;;;;;5096600;28;20118;-82
2023/08/13 11:09:35;;;;;;;24.33;12.13;;;;;;;;;;5080062;28;20089;-82
2023/08/13 11:12:01;;;;;;;21.40;11.45;;;;;;;;;;5096317;28;20096;-83
2023/08/13 11:14:26;;;;;;;20.48;11.50;;;;;;;;;;5080903;28;20035;-82
2023/08/13 11:16:52;;;;;;;21.35;11.73;;;;;;;;;;5100408;28;20038;-83
2023/08/13 11:19:17;;;;;;;18.75;10.88;;;;;;;;;;5118541;28;20023;-82
2023/08/13 11:21:43;;;;;;;19.77;11.55;;;;;;;;;;5118359;28;20480;-83
2023/08/13 11:24:09;;;;;;;21.95;11.88;;;;;;;;;;5117256;28;20055;-82
2023/08/13 11:26:34;;;;;;;24.25;11.70;;;;;;;;;;5100523;28;20035;-82
2023/08/13 11:29:00;;;;;;;21.60;12.07;;;;;;;;;;5099975;28;20047;-83
2023/08/13 11:31:25;;;;;;;21.98;12.23;;;;;;;;;;5100586;28;20031;-82
2023/08/13 11:33:51;;;;;;;21.90;11.73;;;;;;;;;;5100089;28;20140;-82
2023/08/13 11:36:16;;;;;;;19.63;11.32;;;;;;;;;;5100581;28;20100;-83
2023/08/13 11:38:42;;;;;;;32.03;12.13;;;;;;;;;;5083606;28;20035;-83
2023/08/13 11:41:13;;;;;;;23.08;11.68;;;;;;;;;;5117055;28;20067;-83
2023/08/13 11:43:39;;;;;;;19.55;10.50;;;;;;;;;;5117045;28;20122;-83
2023/08/13 11:46:05;;;;;;;22.20;9.52;;;;;;;;;;5100149;28;20184;-83
2023/08/13 11:48:31;;;;;;;17.83;9.95;;;;;;;;;;5099802;28;20125;-82
2023/08/13 11:51:13;;;;;;;21.35;9.85;;;;;;;;;;5100284;28;20027;-82
2023/08/13 11:53:45;;;;;;;21.38;11.10;;;;;;;;;;5100246;28;20027;-82
2023/08/13 11:56:14;;;;;;;20.00;10.23;;;;;;;;;;5100225;28;20020;-82
2023/08/13 11:58:40;;;;;;;22.75;10.85;;;;;;;;;;5116628;28;20027;-82
2023/08/13 12:01:05;;;;;;;23.55;10.60;;;;;;;;;;5082459;28;20100;-82
2023/08/13 12:03:38;;;;;;;19.45;10.20;;;;;;;;;;5116540;28;20488;-82
2023/08/13 12:06:06;;;;;;;17.90;10.50;;;;;;;;;;5099696;28;20027;-82
2023/08/13 12:08:32;;;;;;;16.80;9.57;;;;;;;;;;5082765;28;20063;-83
2023/08/13 12:10:57;;;;;;;22.90;9.45;;;;;;;;;;5116513;28;20058;-82
2023/08/13 12:13:27;;;;;;;19.00;10.40;;;;;;;;;;5116121;28;20345;-82
2023/08/13 12:15:53;;;;;;;13.80;9.02;;;;;;;;;;5099260;28;20031;-82
2023/08/13 12:18:19;;;;;;;16.67;9.68;;;;;;;;;;5082659;28;20104;-82
2023/08/13 12:20:44;;;;;;;18.90;9.10;;;;;;;;;;5099427;28;20031;-82
2023/08/13 12:23:10;;;;;;;16.50;9.90;;;;;;;;;;5117667;28;20038;-82
2023/08/13 12:25:35;;;;;;;17.92;9.80;;;;;;;;;;5097952;28;20369;-83
2023/08/13 12:28:01;;;;;;;25.98;9.57;;;;;;;;;;5116081;28;20100;-82
2023/08/13 12:30:26;;;;;;;15.85;9.48;;;;;;;;;;5098790;28;20043;-83
2023/08/13 12:32:52;;;;;;;15.02;9.25;;;;;;;;;;5098995;28;20134;-83
2023/08/13 12:35:17;;;;;;;26.98;9.10;;;;;;;;;;5099531;28;20027;-82
2023/08/13 12:37:43;;;;;;;16.60;9.73;;;;;;;;;;5099013;28;20038;-82
2023/08/13 12:40:09;;;;;;;28.80;9.63;;;;;;;;;;5116974;28;20461;-85
2023/08/13 12:42:34;;;;;;;25.30;9.60;;;;;;;;;;5115943;28;20034;-84
2023/08/13 12:45:00;;;;;;;21.58;9.60;;;;;;;;;;5098680;28;20035;-85
2023/08/13 12:47:25;;;;;;;18.13;9.73;;;;;;;;;;5098712;28;20290;-84
2023/08/13 12:49:51;;;;;;;17.05;9.40;;;;;;;;;;5116835;28;20397;-84
2023/08/13 12:52:16;;;;;;;20.30;9.68;;;;;;;;;;5115676;28;20024;-85
2023/08/13 12:54:42;;;;;;;21.35;9.13;;;;;;;;;;5098792;28;20108;-84
2023/08/13 12:57:07;;;;;;;14.70;9.70;;;;;;;;;;5098811;28;20479;-85
2023/08/13 12:59:33;;;;;;;23.63;10.65;;;;;;;;;;5115592;28;20093;-85
2023/08/13 13:01:58;;;;;;;17.40;10.38;;;;;;;;;;5116505;28;20067;-85
2023/08/13 13:04:23;;;;;;;21.33;10.20;;;;;;;;;;5098719;28;20031;-85
2023/08/13 13:06:49;;;;;;;17.50;10.05;;;;;;;;;;5098585;28;20074;-82
2023/08/13 13:09:15;;;;;;;19.02;10.63;;;;;;;;;;5115813;28;20053;-82
2023/08/13 13:11:41;;;;;;;20.75;10.43;;;;;;;;;;5115148;28;20051;-83
2023/08/13 13:14:06;;;;;;;16.23;9.57;;;;;;;;;;5115039;28;20515;-82
2023/08/13 13:16:32;;;;;;;18.23;10.35;;;;;;;;;;5115022;28;20027;-82
2023/08/13 13:18:57;;;;;;;18.02;10.50;;;;;;;;;;5081269;28;20020;-83
2023/08/13 13:21:23;;;;;;;22.38;9.80;;;;;;;;;;5116300;28;20039;-82
2023/08/13 13:23:49;;;;;;;19.15;10.48;;;;;;;;;;5116236;28;20369;-82
2023/08/13 13:26:14;;;;;;;22.05;10.10;;;;;;;;;;5116335;28;20028;-82
2023/08/13 13:28:40;;;;;;;21.23;10.32;;;;;;;;;;5097514;28;20039;-83
2023/08/13 13:31:06;;;;;;;15.30;9.90;;;;;;;;;;5115902;28;20019;-82
2023/08/13 13:33:31;;;;;;;17.95;10.57;;;;;;;;;;5115907;28;20110;-82
2023/08/13 13:35:57;;;;;;;20.88;10.85;;;;;;;;;;5114607;28;20031;-83
2023/08/13 13:38:22;;;;;;;21.15;10.30;;;;;;;;;;5097927;28;20026;-83
2023/08/13 13:40:48;;;;;;;20.77;10.93;;;;;;;;;;5097373;28;20480;-83
2023/08/13 13:43:13;;;;;;;18.33;10.45;;;;;;;;;;5080315;28;20016;-82
2023/08/13 13:45:39;;;;;;;24.45;11.15;;;;;;;;;;5080789;28;20027;-82
2023/08/13 13:48:04;;;;;;;25.90;10.50;;;;;;;;;;5114670;28;20467;-85
2023/08/13 13:50:30;;;;;;;19.70;10.35;;;;;;;;;;5114383;28;20024;-82
2023/08/13 13:52:55;;;;;;;23.90;10.80;;;;;;;;;;5080786;28;20016;-84
2023/08/13 13:55:21;;;;;;;18.08;10.57;;;;;;;;;;5097558;28;20034;-85
2023/08/13 13:57:47;;;;;;;21.33;11.35;;;;;;;;;;5114389;28;20461;-82
2023/08/13 14:00:13;;;;;;;18.17;11.40;;;;;;;;;;5114495;28;20030;-82
2023/08/13 14:02:39;;;;;;;23.08;11.05;;;;;;;;;;5115457;28;20028;-83
2023/08/13 14:05:05;;;;;;;26.33;11.52;;;;;;;;;;5114198;28;20115;-83
2023/08/13 14:07:30;;;;;;;20.92;11.20;;;;;;;;;;5113992;28;20110;-82
2023/08/13 14:09:56;;;;;;;20.42;11.75;;;;;;;;;;5113913;28;20035;-82
2023/08/13 14:12:22;;;;;;;25.30;11.88;;;;;;;;;;5096985;28;20030;-82
2023/08/13 14:14:47;;;;;;;31.33;11.60;;;;;;;;;;5115060;28;20019;-82
2023/08/13 14:17:13;;;;;;;24.08;11.63;;;;;;;;;;5114102;28;20012;-82
2023/08/13 14:19:41;;;;;;;20.42;10.98;;;;;;;;;;5114879;28;20064;-82